Terminal Aerodrome Forecast
Issued by NWS Cleveland, OH

Home | Current Version | Previous Version | Text Only | Print | Product List | Glossary On
Versions: 1 2 3 4 5 6 7 8 9 10 11 12 13 14 15 16 17 18 19 20
000
FTUS41 KCLE 250000 AAA
TAFTOL
TAF AMD
KTOL 250049Z 2501/2524 23006KT P6SM SCT030 BKN045
     FM250400 27008KT 4SM BR BKN015 OVC030
     FM250800 27006KT 5SM -SHSN OVC015
     FM251200 04010KT 3SM -SN BR OVC008
     FM251400 04014G22KT 1SM -SN OVC008
     FM251600 05013G22KT 3SM -SHRA OVC015
     FM252100 05012KT 5SM BR VCSH OVC015=

USA.gov is the U.S. government's official web portal to all federal, state and local government web resources and services.